Terminal Aerodrome Forecast
Issued by NWS Tuscon, AZ

Home | Current Version | Previous Version | Text Only | Print | Product List | Glossary On
Versions: 1 2 3 4 5 6 7 8 9 10 11
634
FTUS45 KTWC 271120
TAFTUS
TAF
KTUS 271120Z 2712/2812 16005KT P6SM BKN250
     FM271800 27014G22KT P6SM BKN250
     FM280300 23010KT P6SM BKN250=

USA.gov is the U.S. government's official web portal to all federal, state and local government web resources and services.